Time;durP1;ratioP1;P1;durP2;ratioP2;P2;SDS_P1;SDS_P2;PMS_P1;PMS_P2;Temp;Humidity;BMP_temperature;BMP_pressure;BME280_temperature;BME280_humidity;BME280_pressure;Samples;Min_cycle;Max_cycle;Signal;HPM_P1;HPM_P2
2022/08/27 00:03:20;;;;;;;12.07;9.88;;;;;;;22.17;100.00;99691.29;2913980;80;21007;-90
2022/08/27 00:07:21;;;;;;;11.25;9.05;;;;;;;22.15;100.00;99684.75;2857211;80;21065;-91
2022/08/27 00:11:26;;;;;;;11.45;9.63;;;;;;;22.17;100.00;99688.58;2917031;80;21026;-90
2022/08/27 00:15:29;;;;;;;14.28;9.98;;;;;;;22.21;100.00;99689.83;2909983;81;21049;-89
2022/08/27 00:19:32;;;;;;;15.98;9.00;;;;;;;22.21;100.00;99691.19;2912488;79;21008;-91
2022/08/27 00:23:34;;;;;;;13.45;9.58;;;;;;;22.22;100.00;99688.78;2901791;80;21566;-86
2022/08/27 00:27:36;;;;;;;17.40;9.15;;;;;;;22.21;100.00;99691.19;2906132;81;21042;-86
2022/08/27 00:31:37;;;;;;;11.78;8.78;;;;;;;22.09;100.00;99685.09;2878300;81;21058;-85
2022/08/27 00:35:39;;;;;;;9.58;7.90;;;;;;;22.06;100.00;99681.47;2903069;80;21034;-86
2022/08/27 00:39:40;;;;;;;12.03;8.55;;;;;;;22.01;100.00;99680.45;2889169;80;20999;-86
2022/08/27 00:43:56;;;;;;;12.00;10.82;;;;;;;22.00;100.00;99683.66;2859015;80;20994;-86
2022/08/27 00:47:59;;;;;;;16.37;9.78;;;;;;;22.01;100.00;99678.59;2903278;80;22145;-86
2022/08/27 00:52:06;;;;;;;13.98;9.45;;;;;;;22.00;100.00;99678.25;2913124;79;21011;-86
2022/08/27 00:56:17;;;;;;;12.78;8.35;;;;;;;22.00;100.00;99672.84;2912907;79;20979;-86
2022/08/27 01:00:19;;;;;;;9.63;7.40;;;;;;;21.94;100.00;99680.48;2894814;80;21022;-85
2022/08/27 01:04:21;;;;;;;15.03;10.28;;;;;;;21.83;100.00;99672.00;2925353;80;21061;-86
2022/08/27 01:08:26;;;;;;;16.82;9.65;;;;;;;21.77;100.00;99673.38;2915407;80;21146;-86
2022/08/27 01:12:30;;;;;;;12.75;8.38;;;;;;;21.61;100.00;99671.42;2914801;80;21097;-86
2022/08/27 01:16:38;;;;;;;11.22;8.00;;;;;;;21.51;100.00;99670.52;2920824;79;21049;-85
2022/08/27 01:20:50;;;;;;;13.90;10.40;;;;;;;21.31;100.00;99666.51;2912738;80;21113;-85
2022/08/27 01:24:57;;;;;;;11.15;8.48;;;;;;;21.13;100.00;99680.70;2894030;80;21046;-85
2022/08/27 01:28:59;;;;;;;14.83;10.30;;;;;;;20.99;100.00;99681.24;2913264;80;21062;-86
2022/08/27 01:33:00;;;;;;;20.37;9.78;;;;;;;20.79;100.00;99682.56;2872529;81;21066;-85
2022/08/27 01:37:01;;;;;;;17.40;11.95;;;;;;;20.70;100.00;99685.98;2910821;80;21120;-84
2022/08/27 01:41:03;;;;;;;19.87;11.85;;;;;;;20.60;100.00;99686.39;2904288;81;21074;-86
2022/08/27 01:45:12;;;;;;;13.15;11.57;;;;;;;20.41;100.00;99698.31;2917631;80;21050;-86
2022/08/27 01:49:13;;;;;;;20.20;11.97;;;;;;;20.21;100.00;99690.70;2915152;80;21157;-86
2022/08/27 01:53:20;;;;;;;15.63;12.05;;;;;;;20.20;100.00;99694.43;2914215;80;21066;-86
2022/08/27 01:57:22;;;;;;;14.03;11.40;;;;;;;20.34;100.00;99693.44;2919009;80;21058;-85
2022/08/27 02:01:23;;;;;;;13.98;12.03;;;;;;;20.36;100.00;99700.00;2912533;80;21011;-86
2022/08/27 02:05:26;;;;;;;15.72;10.75;;;;;;;20.41;100.00;99696.97;2918139;80;20983;-85
2022/08/27 02:09:27;;;;;;;18.52;10.50;;;;;;;20.41;100.00;99696.97;2909379;80;21011;-86
2022/08/27 02:13:29;;;;;;;21.42;12.47;;;;;;;20.49;100.00;99693.78;2916221;80;21018;-85
2022/08/27 02:17:30;;;;;;;16.75;10.85;;;;;;;20.59;100.00;99694.73;2879453;81;20994;-85
2022/08/27 02:21:32;;;;;;;11.75;9.83;;;;;;;20.52;100.00;99683.91;2886555;80;21079;-85
2022/08/27 02:25:34;;;;;;;12.35;10.72;;;;;;;20.37;100.00;99678.70;2914353;80;21640;-86
2022/08/27 02:29:35;;;;;;;14.55;11.20;;;;;;;20.34;100.00;99685.33;2912056;81;21047;-85
2022/08/27 02:33:36;;;;;;;11.93;10.23;;;;;;;20.19;100.00;99683.32;2904969;81;21073;-85
2022/08/27 02:37:37;;;;;;;17.52;12.00;;;;;;;20.11;100.00;99683.83;2914300;80;21011;-85
2022/08/27 02:41:38;;;;;;;19.92;11.28;;;;;;;20.05;100.00;99683.30;2915620;80;21026;-86
2022/08/27 02:45:39;;;;;;;15.55;11.30;;;;;;;19.97;100.00;99688.87;2915786;80;21022;-86
2022/08/27 02:49:40;;;;;;;13.60;11.70;;;;;;;19.96;100.00;99687.20;2912801;80;21038;-85
2022/08/27 02:53:42;;;;;;;12.85;10.80;;;;;;;19.97;100.00;99692.41;2920398;81;21046;-85
2022/08/27 02:57:44;;;;;;;16.75;11.22;;;;;;;20.09;100.00;99692.66;2912363;81;21012;-86
2022/08/27 03:01:46;;;;;;;17.27;11.25;;;;;;;20.17;100.00;99701.09;2891236;80;21074;-85
2022/08/27 03:05:47;;;;;;;15.85;11.45;;;;;;;20.25;100.00;99713.58;2913773;80;21042;-86
2022/08/27 03:09:48;;;;;;;18.85;12.70;;;;;;;20.29;100.00;99716.17;2910243;80;21157;-85
2022/08/27 03:13:51;;;;;;;21.50;12.47;;;;;;;20.33;100.00;99721.48;2949857;79;21023;-85
2022/08/27 03:22:12;;;;;;;13.53;10.98;;;;;;;20.23;100.00;99724.57;2939381;79;21027;-84
2022/08/27 03:26:14;;;;;;;15.50;12.10;;;;;;;20.21;100.00;99723.94;2936593;79;21027;-86
2022/08/27 03:30:20;;;;;;;17.40;11.03;;;;;;;20.19;100.00;99722.47;2937958;79;21625;-86
2022/08/27 03:34:21;;;;;;;;;;;;;;;20.09;100.00;99723.70;2948522;80;21030;-85
2022/08/27 03:38:25;;;;;;;14.38;10.60;;;;;;;20.11;100.00;99732.42;2877510;79;20140;-85
2022/08/27 03:42:26;;;;;;;9.20;7.95;;;;;;;20.08;100.00;99758.48;2945094;79;21042;-85
2022/08/27 03:46:29;;;;;;;10.40;9.18;;;;;;;19.97;100.00;99813.88;2897975;80;21037;-85
2022/08/27 03:50:32;;;;;;;12.47;7.12;;;;;;;20.05;100.00;99784.53;2936002;79;21033;-85
2022/08/27 03:54:38;;;;;;;10.78;7.00;;;;;;;20.21;100.00;99808.16;2930401;79;21113;-85
2022/08/27 03:58:40;;;;;;;9.13;6.42;;;;;;;20.37;100.00;99800.23;2937556;79;20998;-85
2022/08/27 04:02:42;;;;;;;10.88;7.30;;;;;;;20.57;100.00;99808.92;2930863;79;21023;-85
2022/08/27 04:06:44;;;;;;;11.95;7.45;;;;;;;20.73;100.00;99790.95;2942857;80;21116;-86
2022/08/27 04:10:45;;;;;;;10.43;4.97;;;;;;;20.89;100.00;99780.33;2954488;79;21062;-85
2022/08/27 04:14:46;;;;;;;9.18;4.50;;;;;;;20.95;100.00;99764.63;2942566;78;21082;-86
2022/08/27 04:18:47;;;;;;;7.83;4.62;;;;;;;21.05;100.00;99766.10;2969721;79;21038;-86
2022/08/27 04:22:48;;;;;;;5.97;4.45;;;;;;;20.89;100.00;99733.02;2954481;79;21034;-85
2022/08/27 04:26:50;;;;;;;9.78;6.17;;;;;;;20.96;100.00;99724.39;2945545;79;21014;-86
2022/08/27 04:30:51;;;;;;;14.90;7.25;;;;;;;21.09;100.00;99707.32;2935523;79;21030;-86
2022/08/27 04:34:55;;;;;;;8.28;5.28;;;;;;;21.29;100.00;99682.12;2934704;80;21005;-86
2022/08/27 04:38:56;;;;;;;12.20;7.40;;;;;;;21.65;100.00;99677.28;2959737;78;21029;-86
2022/08/27 04:42:58;;;;;;;6.92;5.30;;;;;;;21.93;100.00;99681.53;2929843;79;21030;-86
2022/08/27 04:47:02;;;;;;;14.40;6.10;;;;;;;22.21;100.00;99687.13;2939639;80;20998;-86
2022/08/27 04:51:04;;;;;;;7.45;4.97;;;;;;;22.71;100.00;99680.13;2941568;80;21069;-86
2022/08/27 04:55:06;;;;;;;12.63;5.60;;;;;;;23.11;100.00;99668.92;2939544;80;21541;-86
2022/08/27 04:59:10;;;;;;;8.85;3.85;;;;;;;23.47;100.00;99670.03;2933012;79;21010;-87
2022/08/27 05:03:11;;;;;;;10.60;5.87;;;;;;;23.96;98.32;99678.20;2954655;79;21081;-86
2022/08/27 05:07:12;;;;;;;6.58;5.85;;;;;;;24.35;95.24;99669.73;2933323;78;21299;-86
2022/08/27 05:11:17;;;;;;;7.85;5.58;;;;;;;24.76;95.27;99671.84;2962385;78;21026;-87
2022/08/27 05:15:18;;;;;;;7.42;4.58;;;;;;;25.18;92.98;99669.04;2934704;78;20967;-87
2022/08/27 05:19:19;;;;;;;7.15;4.90;;;;;;;25.70;91.51;99670.14;2935853;79;21042;-87
2022/08/27 05:23:20;;;;;;;5.58;3.85;;;;;;;26.14;88.57;99676.95;2953376;79;21030;-87
2022/08/27 05:27:21;;;;;;;6.53;5.30;;;;;;;26.41;85.55;99670.94;2912573;80;21009;-87
2022/08/27 05:31:22;;;;;;;5.45;4.05;;;;;;;26.59;84.68;99666.61;2917608;79;21070;-86
2022/08/27 05:35:24;;;;;;;5.00;3.77;;;;;;;26.93;83.74;99674.83;2913015;80;20987;-87
2022/08/27 05:39:25;;;;;;;7.72;4.10;;;;;;;27.07;80.59;99659.45;2915243;79;21045;-87
2022/08/27 05:43:26;;;;;;;7.35;3.40;;;;;;;27.16;80.71;99666.14;2918938;80;21049;-88
2022/08/27 05:47:28;;;;;;;4.58;3.52;;;;;;;27.26;79.65;99660.52;2916182;80;21019;-88
2022/08/27 05:51:33;;;;;;;5.33;3.22;;;;;;;27.46;78.84;99664.88;2920261;79;21065;-87
2022/08/27 05:55:41;;;;;;;6.55;3.65;;;;;;;27.66;77.79;99659.42;2915595;80;21420;-87
2022/08/27 06:04:03;;;;;;;10.28;4.65;;;;;;;27.54;79.91;99669.67;2915363;80;21046;-87
2022/08/27 06:08:04;;;;;;;8.08;3.70;;;;;;;27.46;76.02;99674.44;2913667;80;21683;-87
2022/08/27 06:12:07;;;;;;;5.35;3.83;;;;;;;27.49;79.30;99683.48;2917855;81;21117;-86
2022/08/27 06:16:15;;;;;;;5.85;3.40;;;;;;;27.60;77.75;99699.50;2834048;79;21105;-87
2022/08/27 06:20:17;;;;;;;4.12;3.42;;;;;;;27.73;76.68;99702.41;2917809;81;21058;-88
2022/08/27 06:24:18;;;;;;;10.80;3.42;;;;;;;27.84;74.56;99710.72;2912756;80;21035;-87
2022/08/27 06:28:20;;;;;;;6.85;3.35;;;;;;;27.98;76.48;99709.78;2914220;80;20998;-88
2022/08/27 06:32:24;;;;;;;5.72;3.45;;;;;;;27.85;77.10;99718.67;2914624;81;21026;-88
2022/08/27 06:36:25;;;;;;;4.42;3.33;;;;;;;27.69;79.11;99721.73;2916935;79;21011;-89
2022/08/27 06:40:27;;;;;;;4.87;3.65;;;;;;;27.58;79.50;99724.88;2895957;79;21104;-87
2022/08/27 06:44:28;;;;;;;5.53;3.58;;;;;;;27.48;79.35;99725.53;2882342;81;21019;-88
2022/08/27 06:48:29;;;;;;;5.58;3.95;;;;;;;27.35;82.02;99736.28;2915061;81;21050;-88
2022/08/27 06:52:30;;;;;;;7.78;4.12;;;;;;;27.36;83.63;99731.11;2918261;80;21047;-87
2022/08/27 06:56:32;;;;;;;8.83;5.03;;;;;;;27.28;82.10;99729.34;2919445;79;21039;-89
2022/08/27 07:00:33;;;;;;;14.63;4.62;;;;;;;27.05;83.17;99735.28;2913167;80;21066;-88
2022/08/27 07:04:34;;;;;;;36.08;6.62;;;;;;;26.69;83.37;99715.58;2917396;80;21066;-89
2022/08/27 07:08:36;;;;;;;8.78;5.55;;;;;;;26.44;86.56;99724.97;2917342;80;21034;-88
2022/08/27 07:12:37;;;;;;;10.23;5.05;;;;;;;26.54;88.57;99723.80;2894313;79;21059;-88
2022/08/27 07:16:39;;;;;;;4.92;4.10;;;;;;;26.86;86.57;99712.90;2918022;80;21026;-88
2022/08/27 07:20:40;;;;;;;7.62;4.50;;;;;;;27.09;85.40;99722.79;2915552;80;21038;-88
2022/08/27 07:24:41;;;;;;;10.38;4.47;;;;;;;27.32;83.92;99726.42;2914227;80;21042;-87
2022/08/27 07:28:45;;;;;;;7.00;4.17;;;;;;;27.61;83.06;99716.73;2913192;80;20991;-88
2022/08/27 07:32:46;;;;;;;10.15;6.47;;;;;;;27.98;81.74;99720.72;2876901;81;21022;-88
2022/08/27 07:36:50;;;;;;;7.03;4.15;;;;;;;27.88;79.11;99700.92;2916035;80;21061;-87
2022/08/27 07:40:51;;;;;;;8.10;4.33;;;;;;;27.88;79.11;99700.92;2913471;80;21050;-89
2022/08/27 07:44:52;;;;;;;8.78;4.67;;;;;;;28.20;78.73;99724.30;2915985;80;20987;-88
2022/08/27 07:48:56;;;;;;;7.65;4.65;;;;;;;28.31;76.35;99724.39;2908783;81;20987;-88
2022/08/27 07:52:57;;;;;;;5.05;4.37;;;;;;;28.36;76.56;99724.44;2919218;80;21085;-87
2022/08/27 07:56:58;;;;;;;15.78;5.92;;;;;;;28.22;76.87;99728.13;2887112;81;20994;-88
2022/08/27 08:00:59;;;;;;;16.02;5.97;;;;;;;28.21;77.16;99734.68;2911806;81;21030;-88
2022/08/27 08:05:00;;;;;;;11.00;5.58;;;;;;;28.17;79.40;99737.09;2916945;80;21050;-88
2022/08/27 08:09:02;;;;;;;8.35;3.72;;;;;;;28.35;79.00;99740.55;2909100;80;21058;-88
2022/08/27 08:13:04;;;;;;;9.08;6.37;;;;;;;28.57;73.21;99738.30;2915575;81;21061;-89
2022/08/27 08:17:05;;;;;;;5.58;4.45;;;;;;;28.81;76.13;99738.83;2914253;81;21022;-88
2022/08/27 08:21:11;;;;;;;6.85;4.20;;;;;;;28.97;73.47;99741.69;2910051;80;20991;-88
2022/08/27 08:25:13;;;;;;;9.38;5.70;;;;;;;29.30;74.88;99743.29;2905282;81;22599;-87
2022/08/27 08:29:15;;;;;;;9.35;4.45;;;;;;;29.17;69.72;99736.89;2865451;80;21137;-88
2022/08/27 08:33:16;;;;;;;8.83;3.92;;;;;;;29.29;71.54;99740.83;2916582;80;21129;-88
2022/08/27 08:37:17;;;;;;;7.58;5.03;;;;;;;29.32;69.72;99743.84;2899213;81;21089;-89
2022/08/27 08:41:41;;;;;;;8.35;4.37;;;;;;;29.18;69.84;99753.08;2908493;81;21343;-88
2022/08/27 08:45:45;;;;;;;5.97;4.72;;;;;;;29.15;70.17;99753.60;2908183;79;21027;-89
2022/08/27 08:50:07;;;;;;;6.17;4.15;;;;;;;29.36;69.13;99751.00;2915587;81;21152;-88
2022/08/27 08:54:18;;;;;;;6.95;4.05;;;;;;;29.40;68.48;99752.67;2919978;80;21168;-89
2022/08/27 08:59:12;;;;;;;5.90;3.70;;;;;;;29.55;69.35;99757.44;2916028;80;21054;-88
2022/08/27 09:03:15;;;;;;;6.60;4.35;;;;;;;29.44;68.05;99765.59;2961709;79;21041;-88
2022/08/27 09:07:46;;;;;;;3.70;3.40;;;;;;;29.24;66.87;99753.09;2945714;79;21369;-88
2022/08/27 09:12:14;;;;;;;5.17;4.05;;;;;;;29.29;65.43;99751.79;2964995;78;21635;-88
2022/08/27 09:16:16;;;;;;;5.42;3.80;;;;;;;29.45;66.21;99750.80;2968466;78;21825;-87
2022/08/27 09:20:20;;;;;;;3.62;3.25;;;;;;;29.34;67.62;99750.44;2944707;79;21126;-87
2022/08/27 09:24:51;;;;;;;6.03;3.67;;;;;;;29.26;66.31;99760.50;2948963;79;21070;-89
2022/08/27 09:33:19;;;;;;;7.70;3.98;;;;;;;28.99;70.82;99764.99;2897841;80;21109;-88
2022/08/27 09:37:24;;;;;;;5.47;3.42;;;;;;;29.07;69.16;99765.02;2946746;79;21038;-88
2022/08/27 09:41:34;;;;;;;5.03;3.85;;;;;;;29.15;70.24;99764.55;2929202;78;21031;-88
2022/08/27 09:45:35;;;;;;;4.67;3.50;;;;;;;29.18;70.57;99755.81;2936048;78;21050;-88
2022/08/27 09:49:37;;;;;;;5.08;3.70;;;;;;;29.14;68.01;99757.96;2936172;79;21052;-87
2022/08/27 09:53:43;;;;;;;4.10;3.10;;;;;;;29.04;69.06;99758.18;2956770;79;21556;-88
2022/08/27 09:57:44;;;;;;;5.67;3.75;;;;;;;29.25;70.41;99765.70;2912044;79;21002;-87
2022/08/27 10:02:01;;;;;;;6.62;3.87;;;;;;;29.48;70.49;99761.25;2917146;80;21085;-87
2022/08/27 10:06:03;;;;;;;5.22;3.27;;;;;;;29.60;71.55;99761.57;2852100;81;21074;-86
2022/08/27 10:10:21;;;;;;;16.05;10.50;;;;;;;29.54;68.96;99751.69;2916074;80;21042;-87
2022/08/27 10:14:34;;;;;;;6.45;4.90;;;;;;;29.48;70.66;99754.94;2908505;80;21193;-87
2022/08/27 10:18:46;;;;;;;6.95;4.65;;;;;;;29.55;71.99;99759.62;2910636;79;21058;-87
2022/08/27 10:23:23;;;;;;;18.10;3.47;;;;;;;29.62;71.10;99764.86;2898488;79;21113;-88
2022/08/27 10:27:57;;;;;;;5.50;3.45;;;;;;;29.64;70.24;99755.83;2914718;80;21074;-89
2022/08/27 10:32:12;;;;;;;6.67;3.92;;;;;;;29.67;70.39;99759.41;2897427;80;21073;-85
2022/08/27 10:36:31;;;;;;;;;;;;;;;29.76;72.31;99748.76;2899247;79;21042;-88
2022/08/27 10:41:04;;;;;;;9.35;6.67;;;;;;;29.90;71.98;99757.34;2862510;80;20100;-87
2022/08/27 10:45:14;;;;;;;6.25;3.65;;;;;;;30.06;70.02;99749.45;2900168;79;21109;-88
2022/08/27 10:49:39;;;;;;;4.20;2.80;;;;;;;30.05;69.70;99750.55;2894591;80;21169;-89
2022/08/27 10:54:05;;;;;;;3.77;3.05;;;;;;;30.10;68.37;99753.86;2895903;79;21074;-89
2022/08/27 10:58:39;;;;;;;7.33;3.08;;;;;;;30.17;66.69;99749.50;2871784;81;21026;-89
2022/08/27 11:02:58;;;;;;;3.95;2.72;;;;;;;30.21;68.42;99746.48;2881621;80;21107;-90
2022/08/27 11:07:18;;;;;;;8.33;3.42;;;;;;;30.04;67.06;99747.53;2855972;81;30784;-88
2022/08/27 11:11:38;;;;;;;3.62;2.70;;;;;;;30.02;67.57;99744.80;2875955;81;21043;-88
2022/08/27 11:15:44;;;;;;;4.97;2.60;;;;;;;29.91;68.58;99748.02;2874944;81;21077;-89
2022/08/27 11:20:12;;;;;;;10.72;3.95;;;;;;;29.91;67.21;99749.39;2882427;80;21015;-87
2022/08/27 11:24:25;;;;;;;5.87;3.25;;;;;;;30.03;68.95;99747.81;2877893;80;21158;-89
2022/08/27 11:28:40;;;;;;;9.70;3.67;;;;;;;30.08;71.37;99740.16;2895998;81;21063;-87
2022/08/27 11:32:59;;;;;;;7.67;3.15;;;;;;;30.09;67.11;99739.06;2860270;81;21098;-89
2022/08/27 11:37:17;;;;;;;8.90;3.62;;;;;;;30.24;67.62;99742.39;2882442;81;21032;-90
2022/08/27 11:41:55;;;;;;;3.12;2.40;;;;;;;30.26;70.27;99741.56;2913591;80;21042;-89
2022/08/27 11:46:00;;;;;;;3.33;2.85;;;;;;;30.19;66.80;99733.59;2902149;79;21159;-88
2022/08/27 11:50:08;;;;;;;3.90;2.58;;;;;;;29.95;66.53;99733.20;2901821;81;21086;-87
2022/08/27 11:54:24;;;;;;;4.17;2.67;;;;;;;29.88;68.29;99727.44;2918836;80;21544;-87
2022/08/27 11:58:29;;;;;;;2.87;2.42;;;;;;;29.91;67.84;99721.41;2911794;81;21185;-89
2022/08/27 12:02:30;;;;;;;;;;;;;;;29.86;68.40;99715.92;2921292;80;21070;-90
2022/08/27 12:06:50;;;;;;;3.98;3.58;;;;;;;29.84;72.36;99707.15;2904021;81;20133;-89
2022/08/27 12:11:17;;;;;;;3.80;3.17;;;;;;;29.82;72.70;99707.12;2910344;80;21573;-88
2022/08/27 12:15:36;;;;;;;3.35;2.75;;;;;;;29.73;69.28;99703.55;2908013;80;21081;-89
2022/08/27 12:20:00;;;;;;;3.98;2.75;;;;;;;29.89;67.23;99694.02;2919071;79;21027;-88
2022/08/27 12:24:16;;;;;;;5.42;3.22;;;;;;;30.10;66.25;99687.24;2910782;80;21110;-89
2022/08/27 12:28:22;;;;;;;5.00;3.05;;;;;;;30.22;63.89;99682.31;2911894;81;21039;-89
2022/08/27 12:32:35;;;;;;;4.10;2.50;;;;;;;30.34;64.29;99676.56;2911565;81;21660;-94
2022/08/27 12:36:37;;;;;;;3.25;2.42;;;;;;;30.38;62.64;99678.22;2909060;80;21069;-91
2022/08/27 12:40:52;;;;;;;7.22;3.70;;;;;;;30.34;63.99;99680.14;2899307;80;21002;-88
2022/08/27 12:44:56;;;;;;;3.30;2.58;;;;;;;30.22;66.27;99678.20;2909340;79;21046;-88
2022/08/27 12:49:00;;;;;;;4.62;3.27;;;;;;;30.26;65.15;99674.38;2906045;80;21066;-88
2022/08/27 12:53:14;;;;;;;;;;;;;;;30.31;62.99;99677.95;2913887;80;21046;-86
2022/08/27 12:57:41;;;;;;;3.42;2.30;;;;;;;30.23;62.96;99674.36;2908515;80;20108;-87
2022/08/27 13:02:13;;;;;;;2.77;2.20;;;;;;;30.31;63.51;99669.72;2912502;80;21000;-87
2022/08/27 13:06:29;;;;;;;4.45;3.80;;;;;;;30.41;65.11;99673.02;2910703;81;21553;-87
2022/08/27 13:10:31;;;;;;;4.92;3.30;;;;;;;30.48;65.85;99669.45;2921849;80;21077;-86
2022/08/27 13:14:39;;;;;;;4.62;3.65;;;;;;;30.59;63.92;99666.15;2916592;79;21047;-87
2022/08/27 13:18:40;;;;;;;3.55;2.90;;;;;;;30.61;64.60;99665.35;2909546;80;21023;-88
2022/08/27 13:22:43;;;;;;;4.37;2.15;;;;;;;30.67;65.58;99668.92;2853496;79;20991;-88
2022/08/27 13:26:49;;;;;;;4.60;2.80;;;;;;;30.73;64.39;99662.89;2912276;79;21054;-88
2022/08/27 13:30:50;;;;;;;4.40;3.15;;;;;;;30.82;65.56;99663.96;2906525;79;21345;-89
2022/08/27 13:34:52;;;;;;;3.85;3.25;;;;;;;30.81;65.42;99666.44;2918596;79;21053;-88
2022/08/27 13:38:55;;;;;;;4.85;3.02;;;;;;;30.78;66.26;99667.83;2918191;80;21011;-89
2022/08/27 13:43:10;;;;;;;3.10;2.80;;;;;;;30.90;64.88;99670.28;2913790;80;21078;-87
2022/08/27 13:47:19;;;;;;;;;;;;;;;31.06;64.00;99669.69;2912454;80;21092;-89
2022/08/27 13:51:33;;;;;;;7.60;3.02;;;;;;;31.14;62.75;99661.44;2917341;80;20110;-90
2022/08/27 13:55:38;;;;;;;5.30;3.40;;;;;;;31.23;61.85;99665.00;2866321;81;21007;-89
2022/08/27 13:59:40;;;;;;;4.33;2.83;;;;;;;31.24;62.69;99669.39;2911514;80;21030;-90
2022/08/27 14:04:02;;;;;;;5.17;3.27;;;;;;;31.15;63.71;99674.60;2911931;79;21098;-91
2022/08/27 14:08:16;;;;;;;6.72;3.40;;;;;;;31.05;62.89;99670.80;2906154;79;21050;-89
2022/08/27 14:12:32;;;;;;;3.98;2.55;;;;;;;31.07;63.11;99677.39;2911421;81;21034;-88
2022/08/27 14:16:35;;;;;;;4.35;2.62;;;;;;;31.11;62.47;99674.36;2898732;81;20991;-87
2022/08/27 14:20:37;;;;;;;3.10;2.58;;;;;;;31.12;61.73;99670.51;2913817;80;21034;-87
2022/08/27 14:24:38;;;;;;;4.83;3.02;;;;;;;31.23;66.00;99673.24;2914071;80;21046;-86
2022/08/27 14:28:39;;;;;;;4.17;2.92;;;;;;;31.41;64.44;99671.27;2927607;79;21010;-86
2022/08/27 14:32:41;;;;;;;3.80;3.12;;;;;;;31.42;63.53;99667.41;2909952;80;21013;-89
2022/08/27 14:36:43;;;;;;;6.20;3.70;;;;;;;31.38;61.23;99663.58;2924152;79;21050;-87
2022/08/27 14:40:46;;;;;;;7.87;2.90;;;;;;;31.33;65.40;99671.28;2913985;80;21027;-87
2022/08/27 14:44:47;;;;;;;3.55;2.85;;;;;;;31.13;65.28;99667.20;2915989;79;21066;-86
2022/08/27 14:48:48;;;;;;;3.77;2.60;;;;;;;31.11;65.88;99669.40;2918236;81;21013;-86
2022/08/27 14:52:49;;;;;;;3.35;2.72;;;;;;;31.18;65.63;99672.13;2914520;79;21081;-85
2022/08/27 14:56:53;;;;;;;4.70;2.83;;;;;;;31.07;61.96;99669.16;2893645;81;20975;-85
2022/08/27 15:00:55;;;;;;;4.47;3.35;;;;;;;30.78;61.33;99668.36;2919201;80;21086;-85
2022/08/27 15:04:56;;;;;;;4.00;2.98;;;;;;;30.73;62.19;99665.63;2920011;80;21075;-84
2022/08/27 15:08:57;;;;;;;3.85;3.45;;;;;;;30.71;62.64;99671.95;2903974;80;21026;-85
2022/08/27 15:12:58;;;;;;;5.60;3.00;;;;;;;30.66;65.87;99673.30;2921476;79;21058;-85
2022/08/27 15:17:00;;;;;;;9.85;5.15;;;;;;;30.42;67.53;99662.85;2907649;80;20999;-86
2022/08/27 15:21:02;;;;;;;4.70;3.00;;;;;;;30.22;69.47;99664.48;2906298;79;21008;-86
2022/08/27 15:25:05;;;;;;;2.87;2.60;;;;;;;30.25;69.81;99657.08;2914903;80;21037;-87
2022/08/27 15:29:07;;;;;;;6.60;3.45;;;;;;;30.25;71.94;99659.82;2896583;80;20995;-88
2022/08/27 15:33:08;;;;;;;6.15;3.30;;;;;;;30.17;72.46;99660.38;2902739;80;20960;-87
2022/08/27 15:37:09;;;;;;;3.52;2.50;;;;;;;30.10;73.22;99662.00;2905607;79;20984;-87
2022/08/27 15:41:11;;;;;;;10.20;3.40;;;;;;;30.02;71.28;99657.87;2872776;80;21035;-87
2022/08/27 15:45:13;;;;;;;3.40;3.10;;;;;;;29.98;72.00;99651.27;2916256;80;21098;-88
2022/08/27 15:49:14;;;;;;;9.93;4.22;;;;;;;29.95;73.07;99656.45;2919956;78;21018;-89
2022/08/27 15:53:20;;;;;;;13.78;4.65;;;;;;;29.89;73.12;99648.78;2917125;80;21069;-89
2022/08/27 15:57:21;;;;;;;6.30;4.37;;;;;;;29.75;74.48;99648.45;2921512;80;21577;-90
2022/08/27 16:01:29;;;;;;;6.47;5.05;;;;;;;29.35;75.87;99653.49;2911533;79;21091;-91
2022/08/27 16:05:35;;;;;;;7.37;4.30;;;;;;;29.17;76.16;99650.12;2905545;80;21042;-89
2022/08/27 16:09:37;;;;;;;8.68;4.50;;;;;;;29.02;76.17;99650.86;2900893;79;21061;-89
2022/08/27 16:13:38;;;;;;;8.10;5.05;;;;;;;28.93;75.97;99650.53;2907023;79;21023;-91
2022/08/27 16:17:41;;;;;;;6.97;4.95;;;;;;;28.73;75.93;99648.44;2893961;81;21054;-92
2022/08/27 16:21:43;;;;;;;5.85;4.90;;;;;;;28.49;76.47;99650.70;2913428;80;21022;-88
2022/08/27 16:25:44;;;;;;;10.78;5.42;;;;;;;28.48;76.71;99658.63;2858898;81;21070;-91
2022/08/27 16:29:45;;;;;;;11.40;5.62;;;;;;;28.43;77.95;99652.59;2910529;80;21027;-90
2022/08/27 16:33:47;;;;;;;9.33;6.90;;;;;;;28.31;79.50;99650.03;2916200;81;21031;-91
2022/08/27 16:37:48;;;;;;;8.98;6.95;;;;;;;27.91;79.53;99638.40;2905871;80;21034;-91
2022/08/27 16:41:50;;;;;;;8.55;7.65;;;;;;;27.59;80.83;99664.27;2912305;80;21007;-92
2022/08/27 16:45:55;;;;;;;9.35;6.60;;;;;;;27.38;83.01;99663.97;2910101;79;21066;-91
2022/08/27 16:54:15;;;;;;;10.82;8.08;;;;;;;27.09;86.78;99679.13;2831617;82;21056;-91
2022/08/27 16:58:23;;;;;;;14.85;9.18;;;;;;;27.02;89.17;99682.58;2834475;82;21095;-91
2022/08/27 17:02:29;;;;;;;12.00;10.00;;;;;;;26.96;91.46;99686.31;2819272;82;21088;-89
2022/08/27 17:06:30;;;;;;;10.35;9.25;;;;;;;26.72;92.78;99684.55;2816792;83;21052;-89
2022/08/27 17:10:37;;;;;;;9.30;8.40;;;;;;;26.52;93.42;99689.11;2808827;82;21063;-90
2022/08/27 17:14:38;;;;;;;11.70;8.63;;;;;;;26.43;90.82;99691.97;2804429;83;21068;-91
2022/08/27 17:18:40;;;;;;;15.43;10.23;;;;;;;26.30;92.22;99687.10;2807990;82;21076;-88
2022/08/27 17:22:42;;;;;;;10.58;9.13;;;;;;;26.09;96.43;99686.70;2759894;83;21602;-89
2022/08/27 17:26:43;;;;;;;14.28;8.55;;;;;;;26.01;93.36;99691.70;2819082;81;21151;-89
2022/08/27 17:30:44;;;;;;;12.30;9.80;;;;;;;26.00;90.87;99697.70;2903411;80;21085;-89
2022/08/27 17:34:46;;;;;;;24.72;9.63;;;;;;;25.98;90.28;99703.94;2918653;80;21192;-89
2022/08/27 17:38:48;;;;;;;16.20;9.70;;;;;;;25.96;90.88;99706.08;2915007;80;21137;-91
2022/08/27 17:42:49;;;;;;;8.60;7.62;;;;;;;25.97;90.07;99715.91;2866769;80;21046;-90
2022/08/27 17:46:54;;;;;;;10.85;9.70;;;;;;;25.90;90.46;99724.21;2914746;80;21062;-88
2022/08/27 17:50:55;;;;;;;12.73;8.65;;;;;;;25.85;90.80;99728.20;2912694;81;21046;-90
2022/08/27 17:54:57;;;;;;;15.32;9.10;;;;;;;25.75;91.79;99727.45;2915856;80;21323;-90
2022/08/27 17:58:58;;;;;;;14.25;9.48;;;;;;;25.62;92.87;99735.88;2917959;79;21070;-90
2022/08/27 18:03:00;;;;;;;10.28;8.83;;;;;;;25.47;94.13;99734.47;2916348;80;21042;-89
2022/08/27 18:07:01;;;;;;;10.68;9.63;;;;;;;25.39;95.14;99729.37;2913137;80;21204;-90
2022/08/27 18:11:04;;;;;;;13.93;11.05;;;;;;;25.29;96.00;99735.93;2911666;79;21027;-89
2022/08/27 18:15:11;;;;;;;13.28;11.70;;;;;;;25.18;98.07;99752.03;2915387;80;21054;-87
2022/08/27 18:19:12;;;;;;;12.13;10.18;;;;;;;25.16;98.02;99758.25;2909837;81;21074;-86
2022/08/27 18:23:13;;;;;;;11.57;10.28;;;;;;;25.08;98.59;99762.66;2905069;80;21074;-90
2022/08/27 18:27:14;;;;;;;15.28;10.60;;;;;;;25.07;98.68;99763.20;2912047;80;21597;-90
2022/08/27 18:31:19;;;;;;;13.35;10.35;;;;;;;25.05;100.00;99772.11;2913263;79;20968;-91
2022/08/27 18:35:28;;;;;;;12.85;11.30;;;;;;;25.00;100.00;99774.71;2883864;80;21041;-87
2022/08/27 18:39:29;;;;;;;15.25;13.70;;;;;;;24.93;100.00;99779.44;2903859;79;21018;-87
2022/08/27 18:43:33;;;;;;;16.30;13.75;;;;;;;24.91;100.00;99776.94;2869561;81;20994;-88
2022/08/27 18:47:34;;;;;;;15.63;13.48;;;;;;;24.81;100.00;99775.34;2908426;80;21034;-87
2022/08/27 18:51:37;;;;;;;13.53;12.23;;;;;;;24.71;100.00;99783.19;2906247;80;20991;-89
2022/08/27 18:55:38;;;;;;;14.80;13.20;;;;;;;24.54;100.00;99781.12;2885792;80;22039;-91
2022/08/27 18:59:39;;;;;;;15.03;13.35;;;;;;;24.40;100.00;99784.56;2917793;79;21128;-88
2022/08/27 19:03:48;;;;;;;21.07;17.12;;;;;;;24.42;100.00;99787.87;2897856;81;21748;-88
2022/08/27 19:12:03;;;;;;;18.90;16.20;;;;;;;24.53;100.00;99795.77;2920490;79;21165;-86
2022/08/27 19:16:22;;;;;;;20.40;16.67;;;;;;;24.47;100.00;99796.70;2885865;80;21003;-88
2022/08/27 19:20:23;;;;;;;21.37;16.40;;;;;;;24.42;100.00;99787.87;2904874;80;21110;-88
2022/08/27 19:24:25;;;;;;;26.12;17.50;;;;;;;24.32;100.00;99788.97;2886844;80;21146;-87
2022/08/27 19:28:37;;;;;;;29.57;21.17;;;;;;;24.35;100.00;99794.75;2901999;80;21027;-87